Cooke City, MT

7:38 AM MDT on July 24, 2014 (GMT -0600)
Old Cooke City (KMTMONTA7) Elev 7566 ft | 45.02 °N, 109.94 °W | Change Station

Current weather conditions updated 13 minutes ago

Partly Cloudy
Partly Cloudy
49.1 °F
Feels Like 49 °F
N
0.0
Wind Variable Wind from South

Today is forecast to be Much Cooler than yesterday.

Today
High -- | Low -- °F
--% Chance of Precip.
Yesterday
High -- | Low -- °F
Precip. -- in
5:56 AM 8:55 PM
Waning Crescent, 5% visible
Pressure 30.01 in
Visibility -9999.0 miles
Clouds
Windchill 49 °F
Dew Point 43 °F
Humidity 80%
Rainfall 0.00 in
Snow Depth 2 in , 0 in , 0 in
UV Not available.
Pollen 6.50 out of 12
Air Quality Not available.
Flu Activity Not available.
METAR KP60 241256Z AUTO 00000KT 06/03 A3026 RMK AO1 SLP160 T00610033

More Conditions Fewer Conditions

Pressure 30.01 in
Visibility -9999.0 miles
Clouds
Windchill 49 °F
Dew Point 43 °F
Humidity 80%
Rainfall 0.00 in
Snow Depth 2 in , 0 in , 0 in
UV Not available.
Pollen 6.50 out of 12
Air Quality Not available.
Flu Activity Not available.
METAR KP60 241256Z AUTO 00000KT 06/03 A3026 RMK AO1 SLP160 T00610033

More Conditions Fewer Conditions

10-Day Weather Forecast

Almanac

Astronomy

Jul. 24, 2014 Rise Set
Actual Time 5:56 AM MDT 8:55 PM MDT
Civil Twilight 5:21 AM MDT 9:30 PM MDT
Nautical Twilight 4:36 AM MDT 10:14 PM MDT
Astronomical Twilight 3:43 AM MDT 11:07 PM MDT
Moon 4:08 AM MDT 7:11 PM MDT
Length of Visible Light 16h 08m
Length of Day
14h 59m
Tomorrow will be 2m 7s shorter.
Waning Crescent, 5% of the Moon is Illuminated
Today
Waning Crescent
Jul 26
New
Aug 3
First Quarter
Aug 10
Full
Aug 17
Last Quarter

Today's Extremes

State Highs State Lows

Community

WunderPhotos

Upload Photos

1,736,998 photos uploaded!

Nearby

Snow Depth

Station Depth Elevation
White Mill 2 in 8700 ft
Northeast Entrance 0 in 7350 ft
Fisher Creek 0 in 9100 ft
Monument Peak 0 in 8850 ft
Burnt Mountain 0 in 5880 ft

Earthquake Activity

City Distance Mag. Time & Date
Driggs, Idaho 102 miles 3.1 5:31 PM MDT
2014-07-17
Minimum magnitude displayed is 2.5.

Coastal Water Temperatures

Place Temperature
No Stations Reporting

Nearby Weather Stations

Station Location Temp. Windchill Dew Point Humidity Wind Precip. Elev Updated Type
Old Cooke City, Montana, MT 49.1 °F 49 °F 43 °F 80% South  at  0.0 mph - / hr 7566 ft 7:25 AM MDT Normal
HADS SODA BUTTE CREEK AT YELLOWSTONE WY, Cooke City, MT 42 °F 42 °F - - North  at  - 0.00 in / hr 7359 ft 6:45 AM MDT MADIS
HADS TOWER FALLS RANGER STATION AT YE WY, Yellowstone National Park, WY 45 °F 45 °F 39 °F 81% South  at  3 mph 0.00 in / hr 6266 ft 6:15 AM MDT MADIS

Show More Stations Show Fewer Stations